Time;durP1;ratioP1;P1;durP2;ratioP2;P2;SDS_P1;SDS_P2;PMS_P1;PMS_P2;Temp;Humidity;BMP_temperature;BMP_pressure;BME280_temperature;BME280_humidity;BME280_pressure;Samples;Min_cycle;Max_cycle;Signal;HPM_P1;HPM_P2
2021/08/12 00:03:07;;;;;;;5.70;3.90;;;;;;;12.47;71.94;99925.66;527292;1088;116094;-57
2021/08/12 00:13:14;;;;;;;6.73;4.70;;;;;;;12.33;71.99;99938.88;524707;1089;115975;-58
2021/08/12 00:23:20;;;;;;;5.50;4.00;;;;;;;12.19;72.19;99966.13;519098;1088;116131;-58
2021/08/12 00:33:27;;;;;;;6.30;4.03;;;;;;;12.07;72.54;99964.30;521303;1088;116894;-59
2021/08/12 00:43:34;;;;;;;6.17;4.50;;;;;;;11.99;72.76;99964.72;530016;1088;152053;-59
2021/08/12 00:53:41;;;;;;;5.73;4.97;;;;;;;11.83;72.98;99964.86;532591;1089;116343;-59
2021/08/12 01:03:48;;;;;;;9.43;4.87;;;;;;;11.78;73.46;99968.63;532542;1089;117192;-59
2021/08/12 01:14:09;;;;;;;8.30;5.20;;;;;;;11.73;73.44;99970.72;531798;1088;116177;-59
2021/08/12 01:24:17;;;;;;;9.57;5.50;;;;;;;11.66;73.39;99981.70;532498;1089;116487;-59
2021/08/12 01:34:35;;;;;;;6.57;4.23;;;;;;;11.52;73.74;99993.92;528452;1089;117332;-58
2021/08/12 01:44:45;;;;;;;6.15;5.20;;;;;;;11.47;73.74;100002.09;532494;1088;116176;-59
2021/08/12 01:54:53;;;;;;;8.37;5.70;;;;;;;11.42;73.77;100001.55;532438;1089;117201;-59
2021/08/12 02:04:59;;;;;;;7.55;5.73;;;;;;;11.35;74.07;99995.82;531769;1088;116159;-63
2021/08/12 02:15:07;;;;;;;5.77;5.00;;;;;;;11.28;73.73;99998.92;532557;1089;117834;-59
2021/08/12 02:25:17;;;;;;;8.78;5.43;;;;;;;11.19;74.16;99990.64;532598;1090;116471;-59
2021/08/12 02:35:24;;;;;;;9.20;5.40;;;;;;;11.10;73.99;100003.50;531852;1088;116057;-59
2021/08/12 02:45:33;;;;;;;9.50;6.63;;;;;;;11.03;74.26;99998.59;532576;1088;116183;-58
2021/08/12 02:55:40;;;;;;;7.33;5.07;;;;;;;10.92;74.38;100001.88;531819;1089;116841;-59
2021/08/12 03:05:48;;;;;;;9.33;5.83;;;;;;;10.88;74.56;100018.73;532543;1088;116652;-58
2021/08/12 03:15:55;;;;;;;12.53;5.43;;;;;;;10.83;74.46;100017.31;532618;1088;116323;-58
2021/08/12 03:26:02;;;;;;;6.50;5.70;;;;;;;10.83;74.90;100018.17;531840;1089;118173;-58
2021/08/12 03:36:09;;;;;;;9.53;6.30;;;;;;;11.02;74.74;100022.33;532592;1089;116312;-59
2021/08/12 03:46:16;;;;;;;9.50;6.67;;;;;;;11.19;74.44;100024.81;532598;1088;117185;-59
2021/08/12 03:56:23;;;;;;;10.47;6.53;;;;;;;11.49;74.50;100033.57;531852;1090;117687;-64
2021/08/12 04:06:29;;;;;;;15.40;8.20;;;;;;;11.80;74.22;100030.83;532472;1088;116674;-59
2021/08/12 04:16:36;;;;;;;11.97;6.73;;;;;;;12.17;73.67;100039.92;531842;1089;116676;-59
2021/08/12 04:26:43;;;;;;;13.97;7.03;;;;;;;12.70;73.68;100040.97;532457;1089;117495;-58
2021/08/12 04:36:50;;;;;;;15.43;8.80;;;;;;;13.27;73.50;100057.41;532585;1089;116613;-59
2021/08/12 04:46:56;;;;;;;9.07;5.97;;;;;;;13.94;72.93;100052.86;527461;1088;117457;-58
2021/08/12 04:57:03;;;;;;;7.73;6.70;;;;;;;14.54;72.22;100061.75;532456;1089;117212;-58
2021/08/12 05:07:10;;;;;;;9.00;8.07;;;;;;;17.48;73.27;100073.23;532594;1090;117274;-64
2021/08/12 05:17:16;;;;;;;12.67;6.97;;;;;;;28.61;59.08;100060.30;531828;1089;116625;-59
2021/08/12 05:27:23;;;;;;;11.70;7.30;;;;;;;35.56;46.77;100050.19;532575;1089;116967;-59
2021/08/12 05:37:30;;;;;;;8.30;4.95;;;;;;;38.91;37.64;100058.92;524324;1089;116055;-58
2021/08/12 05:47:36;;;;;;;9.30;6.85;;;;;;;42.15;32.28;100065.98;532479;1090;116538;-60
2021/08/12 05:57:44;;;;;;;7.75;4.60;;;;;;;44.03;28.63;100069.61;532586;1088;116614;-62
2021/08/12 06:07:51;;;;;;;16.23;8.38;;;;;;;46.17;25.41;100071.80;531799;1090;116395;-60
2021/08/12 06:17:58;;;;;;;5.65;4.85;;;;;;;48.03;21.97;100066.18;532610;1088;116507;-61
2021/08/12 06:28:05;;;;;;;9.68;4.80;;;;;;;49.73;19.86;100077.39;532627;1089;117387;-60
2021/08/12 06:38:12;;;;;;;6.68;3.98;;;;;;;50.74;18.11;100086.94;531797;1088;117120;-61
2021/08/12 06:48:19;;;;;;;4.87;3.60;;;;;;;52.58;17.19;100089.27;532591;1089;116389;-70
2021/08/12 06:58:26;;;;;;;4.30;4.00;;;;;;;52.43;16.11;100074.23;531674;1088;117143;-71
2021/08/12 07:08:33;;;;;;;7.60;5.30;;;;;;;52.63;15.17;100082.55;532569;1089;117230;-71
2021/08/12 07:18:40;;;;;;;5.63;5.00;;;;;;;52.52;14.42;100090.78;532609;1089;119158;-70
2021/08/12 07:28:48;;;;;;;6.40;6.00;;;;;;;53.77;13.71;100095.08;531799;1089;116683;-65
2021/08/12 07:38:54;;;;;;;7.90;7.38;;;;;;;51.61;13.84;100097.38;527184;1089;115876;-65
2021/08/12 07:49:17;;;;;;;7.43;6.93;;;;;;;51.61;12.84;100094.58;532562;1090;116727;-68
2021/08/12 07:59:23;;;;;;;8.47;7.97;;;;;;;53.48;11.91;100105.93;531794;1088;116616;-67
2021/08/12 08:09:30;;;;;;;7.85;7.40;;;;;;;50.59;12.86;100100.53;532613;1088;116683;-64
2021/08/12 08:19:36;;;;;;;3.13;2.85;;;;;;;46.27;13.69;100090.88;531801;1089;116602;-62
2021/08/12 08:29:43;;;;;;;3.45;2.45;;;;;;;36.11;18.78;100102.17;532517;1089;116594;-62
2021/08/12 08:39:49;;;;;;;2.27;1.93;;;;;;;31.24;23.24;100110.80;532503;1089;116579;-74
2021/08/12 08:49:57;;;;;;;2.30;1.85;;;;;;;30.52;25.25;100114.62;531899;1088;115912;-73
2021/08/12 09:00:04;;;;;;;4.55;1.98;;;;;;;29.18;27.11;100109.38;532580;1089;116345;-75
2021/08/12 09:10:14;;;;;;;3.00;1.90;;;;;;;27.12;29.26;100121.61;514606;1089;10001347;-74
2021/08/12 09:20:21;;;;;;;3.13;2.07;;;;;;;26.59;31.20;100124.61;522629;1089;117188;-75
2021/08/12 09:30:28;;;;;;;6.33;2.13;;;;;;;26.62;31.73;100123.40;521891;1089;117283;-74
2021/08/12 09:40:35;;;;;;;5.53;2.23;;;;;;;27.27;31.45;100129.61;518057;1089;116706;-73
2021/08/12 09:50:43;;;;;;;3.68;2.10;;;;;;;26.67;31.74;100129.88;518586;1089;116845;-73
2021/08/12 10:00:51;;;;;;;2.20;1.80;;;;;;;26.86;32.10;100135.64;526099;1088;116314;-73
2021/08/12 10:11:15;;;;;;;2.48;2.10;;;;;;;26.28;32.90;100131.94;531847;1089;117613;-73
2021/08/12 10:21:22;;;;;;;4.57;2.17;;;;;;;26.61;33.52;100127.09;520037;1090;116996;-73
2021/08/12 10:31:30;;;;;;;4.45;2.18;;;;;;;26.14;32.71;100121.97;521073;1088;115785;-74
2021/08/12 10:41:38;;;;;;;2.20;1.80;;;;;;;25.62;34.16;100121.92;524347;1089;116708;-73
2021/08/12 10:51:51;;;;;;;2.47;1.70;;;;;;;25.72;34.11;100116.26;532277;1089;116089;-75
2021/08/12 11:01:58;;;;;;;3.60;1.70;;;;;;;25.72;34.23;100110.88;525972;1089;116680;-74
2021/08/12 11:12:05;;;;;;;2.37;2.00;;;;;;;26.51;33.97;100113.95;518676;1089;116941;-74
2021/08/12 11:22:35;;;;;;;3.20;2.05;;;;;;;25.72;33.55;100116.26;526478;1089;116301;-74
2021/08/12 11:33:18;;;;;;;7.67;2.27;;;;;;;25.93;34.22;100112.84;532609;1089;116145;-76
2021/08/12 11:43:25;;;;;;;2.73;2.03;;;;;;;26.18;34.30;100106.30;532462;1089;116133;-72
2021/08/12 11:53:45;;;;;;;3.20;2.63;;;;;;;25.99;34.62;100112.08;532402;1088;116824;-74
2021/08/12 12:03:58;;;;;;;4.80;2.30;;;;;;;25.71;34.70;100114.59;532539;1088;116252;-71
2021/08/12 12:14:05;;;;;;;5.10;2.13;;;;;;;25.97;34.39;100111.44;531847;1089;116374;-73
2021/08/12 12:24:12;;;;;;;2.87;2.30;;;;;;;25.54;34.79;100119.31;529962;1089;117065;-74
2021/08/12 12:34:19;;;;;;;1.83;1.70;;;;;;;25.92;34.03;100107.64;532511;1089;117302;-66
2021/08/12 12:44:25;;;;;;;4.57;2.70;;;;;;;26.41;33.26;100098.11;531699;1089;116258;-64
2021/08/12 12:54:34;;;;;;;7.50;3.03;;;;;;;26.07;33.26;100104.94;532574;1088;116829;-66
2021/08/12 13:04:40;;;;;;;2.43;1.83;;;;;;;25.59;33.31;100090.86;531878;1089;116482;-66
2021/08/12 13:14:47;;;;;;;2.27;2.07;;;;;;;24.63;34.45;100091.33;532550;1089;117298;-66
2021/08/12 13:24:55;;;;;;;2.20;2.00;;;;;;;24.35;35.44;100083.77;530863;1088;117023;-66
2021/08/12 13:35:02;;;;;;;3.80;2.30;;;;;;;24.38;35.53;100077.22;531808;1089;116437;-60
2021/08/12 13:45:12;;;;;;;3.83;2.40;;;;;;;24.52;35.78;100072.95;517158;1090;115984;-60
2021/08/12 13:55:18;;;;;;;2.17;1.97;;;;;;;24.43;35.63;100073.00;532125;1089;115809;-59
2021/08/12 14:05:25;;;;;;;9.97;8.23;;;;;;;24.25;35.90;100070.59;529496;1088;116477;-59
2021/08/12 14:15:32;;;;;;;3.27;2.27;;;;;;;24.06;35.90;100070.02;532566;1088;117198;-62
2021/08/12 14:25:39;;;;;;;3.20;2.20;;;;;;;24.21;36.02;100074.66;531142;1089;117151;-62
2021/08/12 14:35:46;;;;;;;5.43;4.03;;;;;;;24.43;36.09;100064.95;532562;1088;117370;-64
2021/08/12 14:45:52;;;;;;;1.60;1.50;;;;;;;24.43;35.51;100061.45;532584;1088;117020;-67
2021/08/12 14:56:00;;;;;;;3.95;3.55;;;;;;;24.49;35.92;100064.25;531732;1088;116990;-62
2021/08/12 15:06:06;;;;;;;1.63;1.53;;;;;;;24.42;35.00;100055.23;514570;1089;10055216;-63
2021/08/12 15:16:13;;;;;;;6.57;2.20;;;;;;;24.10;35.40;100054.41;522834;1089;117314;-62
2021/08/12 15:26:20;;;;;;;2.60;1.73;;;;;;;23.96;35.83;100055.13;525563;1089;116055;-63
2021/08/12 15:36:27;;;;;;;1.93;1.77;;;;;;;23.97;35.99;100052.28;527894;1088;117204;-62
2021/08/12 15:46:34;;;;;;;5.47;2.60;;;;;;;23.98;37.11;100061.14;531688;1089;117137;-62
2021/08/12 15:56:40;;;;;;;4.07;2.20;;;;;;;23.97;37.15;100048.75;532492;1089;117421;-63
2021/08/12 16:06:47;;;;;;;3.40;2.80;;;;;;;23.88;38.54;100056.00;532431;1088;117766;-63
2021/08/12 16:16:54;;;;;;;3.73;2.17;;;;;;;23.78;39.06;100056.22;515606;1089;116680;-63
2021/08/12 16:27:00;;;;;;;4.07;2.17;;;;;;;23.64;38.75;100053.23;528629;1089;116461;-62
2021/08/12 16:37:08;;;;;;;3.83;2.40;;;;;;;23.46;39.25;100050.78;532354;1089;115995;-62
2021/08/12 16:47:14;;;;;;;2.60;2.40;;;;;;;23.29;39.39;100058.02;531214;1089;116366;-67
2021/08/12 16:57:21;;;;;;;2.30;2.00;;;;;;;23.07;40.82;100059.53;523479;1090;10001055;-64
2021/08/12 17:07:27;;;;;;;5.50;3.10;;;;;;;22.84;41.74;100054.02;523562;1090;116740;-69
2021/08/12 17:17:35;;;;;;;5.73;2.23;;;;;;;23.21;41.62;100052.66;526769;1088;116824;-66
2021/08/12 17:27:42;;;;;;;6.20;3.30;;;;;;;22.56;43.61;100049.81;532498;1089;116662;-67
2021/08/12 17:37:49;;;;;;;9.70;3.87;;;;;;;22.04;44.56;100049.02;531750;1089;117365;-67
2021/08/12 17:47:55;;;;;;;8.33;3.60;;;;;;;21.55;46.16;100069.17;532408;1089;116358;-66
2021/08/12 17:58:03;;;;;;;12.10;4.60;;;;;;;20.99;47.71;100072.13;532457;1089;116429;-66
2021/08/12 18:08:11;;;;;;;10.88;6.00;;;;;;;20.42;49.18;100067.92;531722;1089;116670;-67
2021/08/12 18:18:17;;;;;;;15.93;6.53;;;;;;;19.89;51.16;100086.27;532521;1090;116605;-68
2021/08/12 18:28:24;;;;;;;12.77;6.67;;;;;;;19.43;53.27;100095.96;532579;1089;116334;-70
2021/08/12 18:38:30;;;;;;;23.50;10.73;;;;;;;19.00;54.63;100100.80;532442;1089;116725;-65
2021/08/12 18:48:37;;;;;;;16.10;8.53;;;;;;;18.61;56.38;100107.76;532450;1089;116496;-65
2021/08/12 18:58:44;;;;;;;16.20;8.70;;;;;;;18.28;56.98;100112.45;531769;1089;116723;-65
2021/08/12 19:08:51;;;;;;;16.23;8.63;;;;;;;17.89;58.16;100122.89;532528;1090;116578;-65
2021/08/12 19:18:57;;;;;;;25.10;15.93;;;;;;;17.60;59.06;100128.91;532485;1088;117773;-65
2021/08/12 19:29:04;;;;;;;24.50;16.73;;;;;;;17.36;60.40;100122.05;531786;1089;117369;-64
2021/08/12 19:39:11;;;;;;;24.20;17.07;;;;;;;17.08;61.11;100129.66;532561;1088;118219;-65
2021/08/12 19:49:17;;;;;;;24.53;17.93;;;;;;;16.81;61.64;100123.84;532570;1089;117128;-66
2021/08/12 19:59:24;;;;;;;17.77;11.57;;;;;;;16.59;62.28;100126.56;531789;1088;118533;-65
2021/08/12 20:09:31;;;;;;;15.07;12.60;;;;;;;16.38;62.89;100128.14;532501;1089;116757;-66
2021/08/12 20:19:38;;;;;;;25.37;16.50;;;;;;;16.17;63.50;100135.19;531822;1089;117327;-66
2021/08/12 20:29:45;;;;;;;16.73;13.60;;;;;;;15.93;64.26;100144.92;532572;1088;117483;-65
2021/08/12 20:39:51;;;;;;;17.87;12.50;;;;;;;15.75;64.50;100138.36;532513;1090;116940;-66
2021/08/12 20:49:58;;;;;;;17.03;10.70;;;;;;;15.58;65.09;100148.45;531852;1088;118058;-66
2021/08/12 21:00:06;;;;;;;13.85;10.03;;;;;;;15.38;65.25;100150.80;532537;1088;116612;-65
2021/08/12 21:10:14;;;;;;;12.75;9.38;;;;;;;15.23;65.80;100141.39;532393;1088;117686;-66
2021/08/12 21:20:20;;;;;;;12.73;10.70;;;;;;;15.05;66.42;100131.21;531626;1089;116347;-61
2021/08/12 21:30:28;;;;;;;15.10;9.03;;;;;;;14.94;66.97;100125.88;532456;1088;117537;-61
2021/08/12 21:40:34;;;;;;;15.63;9.43;;;;;;;14.77;67.75;100122.69;521941;1089;117709;-61
2021/08/12 21:50:42;;;;;;;17.90;10.30;;;;;;;14.66;67.71;100123.45;516834;1090;116075;-61
2021/08/12 22:00:49;;;;;;;13.73;8.53;;;;;;;14.50;68.01;100125.50;514863;1088;116419;-60
2021/08/12 22:10:57;;;;;;;10.98;8.53;;;;;;;14.32;68.50;100140.88;520478;1088;116596;-61
2021/08/12 22:21:04;;;;;;;10.43;9.03;;;;;;;14.22;69.07;100146.80;532601;1088;117367;-60
2021/08/12 22:31:10;;;;;;;11.93;8.30;;;;;;;14.08;69.00;100146.94;532613;1088;116543;-61
2021/08/12 22:41:17;;;;;;;10.93;8.83;;;;;;;13.96;69.42;100152.13;531778;1088;117437;-60
2021/08/12 22:51:26;;;;;;;11.23;8.43;;;;;;;13.84;69.52;100155.61;532561;1088;116415;-60
2021/08/12 23:01:34;;;;;;;15.10;8.63;;;;;;;13.78;70.17;100164.80;531743;1090;116471;-60
2021/08/12 23:11:41;;;;;;;12.67;9.13;;;;;;;13.69;70.13;100175.98;532553;1089;117185;-61
2021/08/12 23:21:47;;;;;;;11.97;8.33;;;;;;;13.59;70.14;100173.13;532613;1089;116997;-60
2021/08/12 23:31:54;;;;;;;8.78;7.85;;;;;;;13.49;70.03;100174.69;531810;1088;116729;-61
2021/08/12 23:42:00;;;;;;;11.13;8.13;;;;;;;13.40;70.50;100186.68;532533;1089;117133;-61
2021/08/12 23:52:08;;;;;;;10.00;7.67;;;;;;;13.33;70.82;100170.39;532564;1089;116578;-61
